Time;durP1;ratioP1;P1;durP2;ratioP2;P2;SDS_P1;SDS_P2;PMS_P1;PMS_P2;Temp;Humidity;BMP_temperature;BMP_pressure;BME280_temperature;BME280_humidity;BME280_pressure;Samples;Min_cycle;Max_cycle;Signal;HPM_P1;HPM_P2
2021/12/23 00:08:13;;;;;;;14.90;10.30;;;;;;;;;;4796095;29;20528;-73
2021/12/23 00:11:21;;;;;;;12.48;8.73;;;;;;;;;;4802867;29;20038;-73
2021/12/23 00:14:28;;;;;;;10.98;8.18;;;;;;;;;;4802084;24;20058;-71
2021/12/23 00:17:19;;;;;;;13.75;8.75;;;;;;;;;;4789630;29;20046;-71
2021/12/23 00:19:58;;;;;;;12.35;8.20;;;;;;;;;;4796403;29;20455;-71
2021/12/23 00:25:11;;;;;;;13.73;10.68;;;;;;;;;;4787643;29;20509;-72
2021/12/23 00:27:39;;;;;;;13.95;9.82;;;;;;;;;;4775679;29;20047;-73
2021/12/23 00:30:07;;;;;;;13.27;8.95;;;;;;;;;;4775649;29;20516;-72
2021/12/23 00:32:36;;;;;;;13.50;8.65;;;;;;;;;;4777097;29;20979;-72
2021/12/23 00:35:05;;;;;;;12.52;8.30;;;;;;;;;;4795313;29;20136;-72
2021/12/23 00:37:38;;;;;;;14.38;9.18;;;;;;;;;;4777821;29;20044;-73
2021/12/23 00:40:08;;;;;;;12.88;9.18;;;;;;;;;;4792348;29;20083;-73
2021/12/23 00:42:36;;;;;;;10.85;8.77;;;;;;;;;;4776341;29;20898;-73
2021/12/23 00:45:04;;;;;;;10.65;8.13;;;;;;;;;;4779726;29;20581;-73
2021/12/23 00:47:31;;;;;;;12.75;8.95;;;;;;;;;;4780093;29;20078;-73
2021/12/23 00:49:59;;;;;;;17.08;10.43;;;;;;;;;;4775554;29;20529;-73
2021/12/23 00:52:34;;;;;;;12.27;8.05;;;;;;;;;;4781042;29;20059;-73
2021/12/23 00:55:03;;;;;;;12.55;8.73;;;;;;;;;;4778101;29;20471;-73
2021/12/23 00:57:36;;;;;;;12.32;9.15;;;;;;;;;;4775277;29;20134;-73
2021/12/23 01:00:05;;;;;;;17.83;12.70;;;;;;;;;;4779768;29;20067;-73
2021/12/23 01:02:33;;;;;;;13.68;9.10;;;;;;;;;;4779071;29;20461;-73
2021/12/23 01:05:02;;;;;;;13.18;8.77;;;;;;;;;;4794299;29;20420;-73
2021/12/23 01:07:29;;;;;;;18.60;10.57;;;;;;;;;;4779291;29;20130;-73
2021/12/23 01:09:57;;;;;;;14.30;9.50;;;;;;;;;;4777152;29;20040;-73
2021/12/23 01:12:30;;;;;;;18.40;10.05;;;;;;;;;;4792363;29;20082;-73
2021/12/23 01:15:13;;;;;;;21.55;13.95;;;;;;;;;;4775026;29;20374;-72
2021/12/23 01:17:55;;;;;;;20.42;10.80;;;;;;;;;;4774285;29;20138;-73
2021/12/23 01:20:28;;;;;;;27.92;12.35;;;;;;;;;;4777206;29;20062;-73
2021/12/23 01:22:56;;;;;;;31.63;14.70;;;;;;;;;;4774962;29;20047;-73
2021/12/23 01:25:24;;;;;;;20.75;11.07;;;;;;;;;;4774229;29;20583;-72
2021/12/23 01:27:52;;;;;;;27.17;11.23;;;;;;;;;;4780584;29;20100;-73
2021/12/23 01:30:20;;;;;;;21.98;12.35;;;;;;;;;;4777636;29;20058;-74
2021/12/23 01:32:48;;;;;;;16.58;9.32;;;;;;;;;;4778552;29;20111;-73
2021/12/23 01:35:16;;;;;;;15.18;7.13;;;;;;;;;;4773709;29;20051;-73
2021/12/23 01:37:44;;;;;;;18.17;11.27;;;;;;;;;;4783328;29;20043;-73
2021/12/23 01:40:13;;;;;;;18.55;12.23;;;;;;;;;;4776172;29;20473;-73
2021/12/23 01:42:40;;;;;;;20.63;13.82;;;;;;;;;;4774879;29;20050;-73
2021/12/23 01:45:18;;;;;;;17.45;11.15;;;;;;;;;;4780916;29;20074;-73
2021/12/23 01:47:46;;;;;;;16.33;10.85;;;;;;;;;;4778186;29;20512;-73
2021/12/23 01:50:15;;;;;;;15.30;10.88;;;;;;;;;;4779579;29;20560;-72
2021/12/23 01:52:42;;;;;;;18.25;11.98;;;;;;;;;;4781008;29;20469;-74
2021/12/23 01:55:11;;;;;;;11.82;8.82;;;;;;;;;;4776666;29;20584;-73
2021/12/23 01:57:41;;;;;;;13.20;9.27;;;;;;;;;;4779665;29;20436;-73
2021/12/23 02:00:10;;;;;;;17.00;9.70;;;;;;;;;;4779313;29;20054;-73
2021/12/23 02:02:41;;;;;;;17.48;12.57;;;;;;;;;;4795904;29;20071;-72
2021/12/23 02:05:10;;;;;;;12.77;9.32;;;;;;;;;;4782016;29;20327;-72
2021/12/23 02:07:37;;;;;;;12.85;8.13;;;;;;;;;;4781036;29;20091;-73
2021/12/23 02:10:06;;;;;;;11.73;9.05;;;;;;;;;;4780657;29;20071;-73
2021/12/23 02:12:34;;;;;;;20.02;12.25;;;;;;;;;;4779941;29;20146;-73
2021/12/23 02:15:01;;;;;;;16.83;10.73;;;;;;;;;;4779270;29;20144;-73
2021/12/23 02:17:28;;;;;;;16.70;11.63;;;;;;;;;;4778983;29;20766;-73
2021/12/23 02:19:56;;;;;;;9.50;6.57;;;;;;;;;;4783828;29;20139;-73
2021/12/23 02:22:23;;;;;;;12.88;7.93;;;;;;;;;;4803730;29;20082;-74
2021/12/23 02:24:51;;;;;;;11.82;8.20;;;;;;;;;;4784573;29;20557;-73
2021/12/23 02:27:18;;;;;;;13.30;9.52;;;;;;;;;;4778776;29;20497;-73
2021/12/23 02:29:45;;;;;;;14.88;8.60;;;;;;;;;;4777910;29;20134;-73
2021/12/23 02:32:13;;;;;;;13.95;9.15;;;;;;;;;;4782698;29;20130;-72
2021/12/23 02:34:40;;;;;;;10.57;7.63;;;;;;;;;;4779538;29;20142;-72
2021/12/23 02:37:08;;;;;;;12.00;8.85;;;;;;;;;;4784554;29;20063;-73
2021/12/23 02:39:36;;;;;;;13.35;8.60;;;;;;;;;;4779812;29;20467;-73
2021/12/23 02:42:05;;;;;;;14.43;10.45;;;;;;;;;;4782124;29;20043;-73
2021/12/23 02:44:32;;;;;;;11.75;8.93;;;;;;;;;;4783399;29;20062;-73
2021/12/23 02:47:00;;;;;;;11.05;7.68;;;;;;;;;;4780674;29;20043;-73
2021/12/23 02:49:27;;;;;;;13.45;8.30;;;;;;;;;;4778845;29;20150;-73
2021/12/23 02:51:54;;;;;;;11.40;7.97;;;;;;;;;;4781907;29;20055;-72
2021/12/23 02:54:22;;;;;;;9.15;6.35;;;;;;;;;;4780167;29;20070;-72
2021/12/23 02:56:49;;;;;;;12.40;8.88;;;;;;;;;;4778361;29;20126;-73
2021/12/23 02:59:17;;;;;;;12.70;8.27;;;;;;;;;;4781687;29;20043;-73
2021/12/23 03:01:44;;;;;;;12.82;8.27;;;;;;;;;;4780659;29;20589;-73
2021/12/23 03:04:12;;;;;;;19.40;12.90;;;;;;;;;;4780593;29;20057;-73
2021/12/23 03:06:39;;;;;;;11.25;7.65;;;;;;;;;;4778781;29;20055;-73
2021/12/23 03:09:07;;;;;;;13.10;9.85;;;;;;;;;;4779032;29;20135;-73
2021/12/23 03:11:35;;;;;;;12.30;9.18;;;;;;;;;;4780928;29;20568;-73
2021/12/23 03:14:02;;;;;;;12.82;8.75;;;;;;;;;;4794132;29;20155;-73
2021/12/23 03:16:31;;;;;;;14.02;8.85;;;;;;;;;;4786068;29;20401;-73
2021/12/23 03:18:59;;;;;;;12.90;7.60;;;;;;;;;;4778681;29;20905;-73
2021/12/23 03:21:26;;;;;;;4.40;3.75;;;;;;;;;;4778024;29;20150;-72
2021/12/23 03:23:54;;;;;;;14.73;10.27;;;;;;;;;;4777546;29;20583;-72
2021/12/23 03:26:24;;;;;;;16.17;10.63;;;;;;;;;;4779998;29;20058;-73
2021/12/23 03:28:51;;;;;;;14.65;9.88;;;;;;;;;;4779779;29;20363;-73
2021/12/23 03:31:18;;;;;;;18.35;11.68;;;;;;;;;;4780220;29;20389;-72
2021/12/23 03:33:46;;;;;;;14.57;8.38;;;;;;;;;;4793358;29;20050;-73
2021/12/23 03:36:13;;;;;;;16.77;10.70;;;;;;;;;;4778257;29;20071;-73
2021/12/23 03:38:41;;;;;;;15.15;10.10;;;;;;;;;;4798007;29;20143;-73
2021/12/23 03:41:08;;;;;;;16.38;10.23;;;;;;;;;;4785908;29;20063;-75
2021/12/23 03:43:35;;;;;;;18.00;9.70;;;;;;;;;;4784205;29;20142;-73
2021/12/23 03:46:03;;;;;;;19.95;9.90;;;;;;;;;;4778385;29;20074;-72
2021/12/23 03:48:30;;;;;;;23.42;13.35;;;;;;;;;;4782829;29;20481;-74
2021/12/23 03:50:58;;;;;;;22.00;10.88;;;;;;;;;;4790163;29;20146;-73
2021/12/23 03:53:25;;;;;;;18.02;10.40;;;;;;;;;;4805908;29;20043;-72
2021/12/23 03:55:53;;;;;;;18.13;9.48;;;;;;;;;;4778239;29;20166;-73
2021/12/23 03:58:21;;;;;;;19.25;11.85;;;;;;;;;;4781551;29;20066;-72
2021/12/23 04:00:48;;;;;;;16.15;9.35;;;;;;;;;;4783695;29;20047;-73
2021/12/23 04:03:16;;;;;;;18.20;9.93;;;;;;;;;;4798052;29;20054;-73
2021/12/23 04:05:44;;;;;;;22.02;11.85;;;;;;;;;;4784832;29;20078;-72
2021/12/23 04:08:11;;;;;;;19.63;10.50;;;;;;;;;;4768687;30;20062;-73
2021/12/23 04:10:39;;;;;;;19.45;10.35;;;;;;;;;;4786327;29;20081;-72
2021/12/23 04:13:07;;;;;;;17.95;11.20;;;;;;;;;;4763628;29;20142;-73
2021/12/23 04:15:34;;;;;;;16.95;11.05;;;;;;;;;;4785835;29;20126;-72
2021/12/23 04:18:01;;;;;;;17.45;10.48;;;;;;;;;;4784152;29;20159;-74
2021/12/23 04:20:46;;;;;;;16.20;9.80;;;;;;;;;;4784090;29;20139;-73
2021/12/23 04:23:13;;;;;;;16.23;9.02;;;;;;;;;;4783349;29;20154;-73
2021/12/23 04:25:40;;;;;;;18.75;10.50;;;;;;;;;;4787512;29;20090;-73
2021/12/23 04:28:08;;;;;;;14.75;10.52;;;;;;;;;;4797602;29;20050;-73
2021/12/23 04:30:35;;;;;;;11.85;7.65;;;;;;;;;;4786959;29;20051;-74
2021/12/23 04:33:02;;;;;;;11.73;8.75;;;;;;;;;;4798118;29;20065;-73
2021/12/23 04:35:30;;;;;;;13.65;8.65;;;;;;;;;;4773359;29;20108;-72
2021/12/23 04:37:57;;;;;;;14.02;9.30;;;;;;;;;;4791012;29;20729;-72
2021/12/23 04:40:25;;;;;;;13.60;9.10;;;;;;;;;;4782846;29;20039;-72
2021/12/23 04:42:52;;;;;;;10.65;7.68;;;;;;;;;;4794249;29;20039;-73
2021/12/23 04:45:19;;;;;;;13.65;8.23;;;;;;;;;;4796127;29;20050;-73
2021/12/23 04:47:47;;;;;;;15.85;8.98;;;;;;;;;;4794061;29;20372;-72
2021/12/23 04:50:15;;;;;;;10.50;7.80;;;;;;;;;;4782309;29;20132;-74
2021/12/23 04:52:43;;;;;;;14.68;9.10;;;;;;;;;;4795833;29;20496;-74
2021/12/23 04:55:11;;;;;;;15.95;9.88;;;;;;;;;;4797406;29;20517;-72
2021/12/23 04:57:39;;;;;;;14.13;8.32;;;;;;;;;;4787581;29;20146;-73
2021/12/23 05:00:08;;;;;;;13.20;9.52;;;;;;;;;;4782440;29;20134;-74
2021/12/23 05:02:35;;;;;;;12.73;8.00;;;;;;;;;;4793696;29;20066;-73
2021/12/23 05:05:04;;;;;;;18.25;10.90;;;;;;;;;;4795650;29;20152;-74
2021/12/23 05:07:31;;;;;;;19.48;11.57;;;;;;;;;;4797096;29;20143;-73
2021/12/23 05:09:59;;;;;;;14.77;8.13;;;;;;;;;;4761543;30;20056;-74
2021/12/23 05:12:26;;;;;;;14.30;9.27;;;;;;;;;;4763710;30;20166;-72
2021/12/23 05:14:53;;;;;;;14.15;8.25;;;;;;;;;;4762928;30;20114;-73
2021/12/23 05:17:21;;;;;;;15.05;8.57;;;;;;;;;;4768078;30;20075;-73
2021/12/23 05:19:48;;;;;;;17.10;10.52;;;;;;;;;;4763535;30;20142;-73
2021/12/23 05:22:15;;;;;;;12.95;8.63;;;;;;;;;;4773401;30;20525;-73
2021/12/23 05:24:43;;;;;;;11.63;8.55;;;;;;;;;;4761880;30;20461;-73
2021/12/23 05:27:10;;;;;;;11.80;7.78;;;;;;;;;;4766163;30;20598;-73
2021/12/23 05:29:38;;;;;;;15.68;9.13;;;;;;;;;;4755703;30;20052;-73
2021/12/23 05:32:05;;;;;;;11.73;8.30;;;;;;;;;;4776984;30;20092;-72
2021/12/23 05:34:33;;;;;;;14.90;10.68;;;;;;;;;;4768655;29;20052;-73
2021/12/23 05:37:00;;;;;;;12.80;7.25;;;;;;;;;;4765003;30;20047;-74
2021/12/23 05:39:28;;;;;;;13.35;9.18;;;;;;;;;;4765090;30;20587;-73
2021/12/23 05:41:55;;;;;;;12.27;8.60;;;;;;;;;;4768392;29;20134;-73
2021/12/23 05:44:22;;;;;;;11.82;9.18;;;;;;;;;;4761038;30;20150;-73
2021/12/23 05:46:50;;;;;;;15.20;9.35;;;;;;;;;;4768124;29;20130;-73
2021/12/23 05:49:17;;;;;;;10.90;8.13;;;;;;;;;;4788635;29;20046;-74
2021/12/23 05:51:44;;;;;;;12.00;9.00;;;;;;;;;;4788704;29;20138;-73
2021/12/23 05:54:12;;;;;;;14.55;9.88;;;;;;;;;;4790901;29;20047;-74
2021/12/23 05:56:39;;;;;;;11.95;8.73;;;;;;;;;;4798239;29;20051;-72
2021/12/23 05:59:06;;;;;;;9.75;7.20;;;;;;;;;;4782034;29;20138;-72
2021/12/23 06:01:34;;;;;;;12.95;8.43;;;;;;;;;;4792208;29;20087;-73
2021/12/23 06:04:02;;;;;;;12.98;8.63;;;;;;;;;;4790061;29;20120;-73
2021/12/23 06:06:29;;;;;;;14.25;8.73;;;;;;;;;;4782649;29;20354;-73
2021/12/23 06:08:57;;;;;;;10.35;7.88;;;;;;;;;;4785967;29;20438;-73
2021/12/23 06:11:24;;;;;;;16.05;10.48;;;;;;;;;;4789876;29;20058;-73
2021/12/23 06:13:56;;;;;;;15.02;9.70;;;;;;;;;;4808980;24;20127;-70
2021/12/23 06:16:23;;;;;;;14.40;9.27;;;;;;;;;;4821875;29;20126;-72
2021/12/23 06:18:51;;;;;;;20.55;13.95;;;;;;;;;;4820566;29;20042;-71
2021/12/23 06:21:19;;;;;;;15.60;9.23;;;;;;;;;;4821288;29;20043;-71
2021/12/23 06:23:46;;;;;;;11.98;8.27;;;;;;;;;;4821267;29;20074;-71
2021/12/23 06:26:14;;;;;;;14.90;8.23;;;;;;;;;;4818949;29;20085;-73
2021/12/23 06:28:41;;;;;;;12.48;8.40;;;;;;;;;;4818286;29;20137;-71
2021/12/23 06:31:09;;;;;;;28.40;15.30;;;;;;;;;;4814316;29;20050;-71
2021/12/23 06:33:36;;;;;;;19.95;10.95;;;;;;;;;;4824013;29;20510;-71
2021/12/23 06:36:05;;;;;;;26.77;13.73;;;;;;;;;;4823604;29;20050;-70
2021/12/23 06:38:32;;;;;;;19.55;10.23;;;;;;;;;;4818345;29;20154;-72
2021/12/23 06:41:00;;;;;;;23.75;12.45;;;;;;;;;;4818738;29;20046;-70
2021/12/23 06:43:27;;;;;;;19.35;11.93;;;;;;;;;;4799060;29;20050;-70
2021/12/23 06:45:55;;;;;;;19.10;13.43;;;;;;;;;;4800528;29;20066;-73
2021/12/23 06:48:22;;;;;;;26.55;16.83;;;;;;;;;;4800134;29;20118;-71
2021/12/23 06:50:54;;;;;;;40.80;22.50;;;;;;;;;;4795183;29;20100;-71
2021/12/23 06:53:21;;;;;;;20.55;13.10;;;;;;;;;;4795705;29;20760;-71
2021/12/23 06:55:51;;;;;;;18.33;10.95;;;;;;;;;;4799023;29;20059;-71
2021/12/23 06:58:19;;;;;;;14.18;9.80;;;;;;;;;;4765356;29;20486;-70
2021/12/23 07:00:47;;;;;;;15.15;10.90;;;;;;;;;;4780240;29;20078;-70
2021/12/23 07:03:15;;;;;;;13.05;9.98;;;;;;;;;;4795128;29;20507;-71
2021/12/23 07:05:43;;;;;;;17.02;11.02;;;;;;;;;;4794152;29;20127;-71
2021/12/23 07:08:26;;;;;;;16.33;10.57;;;;;;;;;;4782685;29;20767;-73
2021/12/23 07:10:53;;;;;;;17.85;11.82;;;;;;;;;;4793380;29;20075;-72
2021/12/23 07:13:20;;;;;;;15.27;11.07;;;;;;;;;;4794739;29;20628;-72
2021/12/23 07:15:48;;;;;;;16.00;10.82;;;;;;;;;;4811786;29;20165;-71
2021/12/23 07:18:15;;;;;;;14.88;10.95;;;;;;;;;;4826463;29;20400;-71
2021/12/23 07:20:43;;;;;;;14.32;10.27;;;;;;;;;;4813716;29;20058;-73
2021/12/23 07:23:15;;;;;;;14.77;10.65;;;;;;;;;;4814165;29;20043;-71
2021/12/23 07:25:43;;;;;;;12.90;9.88;;;;;;;;;;4812549;29;20178;-71
2021/12/23 07:28:10;;;;;;;15.35;10.82;;;;;;;;;;4813475;29;20047;-71
2021/12/23 07:30:38;;;;;;;20.42;15.10;;;;;;;;;;4815125;29;20042;-71
2021/12/23 07:33:06;;;;;;;16.85;11.20;;;;;;;;;;4814438;29;20107;-73
2021/12/23 07:35:33;;;;;;;17.45;12.93;;;;;;;;;;4816070;29;20046;-71
2021/12/23 07:38:02;;;;;;;19.88;12.13;;;;;;;;;;4812383;29;20644;-71
2021/12/23 07:40:30;;;;;;;16.55;11.60;;;;;;;;;;4812994;29;20473;-71
2021/12/23 07:43:08;;;;;;;16.88;11.35;;;;;;;;;;4813056;29;20047;-71
2021/12/23 07:45:37;;;;;;;15.45;12.10;;;;;;;;;;4811413;29;20165;-71
2021/12/23 07:48:04;;;;;;;17.30;12.07;;;;;;;;;;4812763;29;20478;-72
2021/12/23 07:50:32;;;;;;;16.35;12.05;;;;;;;;;;4810872;29;20096;-71
2021/12/23 07:52:59;;;;;;;20.67;14.02;;;;;;;;;;4815088;29;20212;-71
2021/12/23 07:55:27;;;;;;;18.77;14.20;;;;;;;;;;4813807;29;20454;-72
2021/12/23 07:57:54;;;;;;;24.05;15.57;;;;;;;;;;4815612;29;20085;-71
2021/12/23 08:00:22;;;;;;;23.20;13.50;;;;;;;;;;4800780;29;20062;-70
2021/12/23 08:02:50;;;;;;;22.27;14.75;;;;;;;;;;4815974;29;20053;-72
2021/12/23 08:05:17;;;;;;;24.95;15.77;;;;;;;;;;4814591;29;20046;-72
2021/12/23 08:07:45;;;;;;;20.90;13.30;;;;;;;;;;4814642;29;20050;-70
2021/12/23 08:10:12;;;;;;;19.10;13.20;;;;;;;;;;4814784;29;20130;-71
2021/12/23 08:12:40;;;;;;;22.88;14.98;;;;;;;;;;4813746;29;20146;-73
2021/12/23 08:15:09;;;;;;;23.58;13.02;;;;;;;;;;4814143;29;20054;-73
2021/12/23 08:17:37;;;;;;;22.48;14.95;;;;;;;;;;4817546;29;20050;-71
2021/12/23 08:20:08;;;;;;;;;;;;;;;;;;4797506;29;20047;-72
2021/12/23 08:22:36;;;;;;;21.17;12.90;;;;;;;;;;4812816;29;19925;-71
2021/12/23 08:25:04;;;;;;;18.60;12.88;;;;;;;;;;4807576;29;20081;-71
2021/12/23 08:27:33;;;;;;;23.67;15.43;;;;;;;;;;4805717;29;20057;-73
2021/12/23 08:30:00;;;;;;;22.08;14.85;;;;;;;;;;4778756;29;20511;-71
2021/12/23 08:32:28;;;;;;;18.67;12.30;;;;;;;;;;4794595;29;20416;-72
2021/12/23 08:34:55;;;;;;;23.80;14.05;;;;;;;;;;4785505;29;20046;-72
2021/12/23 08:37:23;;;;;;;21.77;15.43;;;;;;;;;;4791944;29;20137;-71
2021/12/23 08:39:51;;;;;;;22.67;14.45;;;;;;;;;;4794331;29;20532;-74
2021/12/23 08:42:18;;;;;;;19.13;13.25;;;;;;;;;;4791865;29;20059;-72
2021/12/23 08:44:46;;;;;;;23.50;14.82;;;;;;;;;;4776470;29;20190;-74
2021/12/23 08:47:14;;;;;;;21.50;13.75;;;;;;;;;;4778737;29;20077;-71
2021/12/23 08:49:42;;;;;;;20.42;13.02;;;;;;;;;;4788680;29;20267;-71
2021/12/23 08:52:10;;;;;;;21.98;13.60;;;;;;;;;;4776665;29;20085;-71
2021/12/23 08:54:37;;;;;;;22.60;14.35;;;;;;;;;;4790492;29;20051;-71
2021/12/23 08:57:05;;;;;;;17.38;11.25;;;;;;;;;;4774731;29;20105;-72
2021/12/23 08:59:32;;;;;;;27.25;15.95;;;;;;;;;;4809535;29;20412;-72
2021/12/23 09:02:00;;;;;;;27.48;15.77;;;;;;;;;;4811067;29;20469;-72
2021/12/23 09:04:32;;;;;;;39.75;21.38;;;;;;;;;;4811020;29;20157;-72
2021/12/23 09:07:00;;;;;;;28.48;17.83;;;;;;;;;;4809950;29;20077;-74
2021/12/23 09:09:31;;;;;;;26.73;16.17;;;;;;;;;;4809643;29;20134;-72
2021/12/23 09:11:59;;;;;;;25.52;15.32;;;;;;;;;;4808953;29;20078;-72
2021/12/23 09:14:27;;;;;;;25.98;14.98;;;;;;;;;;4810456;29;20499;-72
2021/12/23 09:16:54;;;;;;;25.00;16.10;;;;;;;;;;4809389;29;20062;-72
2021/12/23 09:19:22;;;;;;;24.90;15.82;;;;;;;;;;4811173;29;20050;-73
2021/12/23 09:21:49;;;;;;;26.92;16.67;;;;;;;;;;4811842;29;20115;-71
2021/12/23 09:24:18;;;;;;;22.17;15.00;;;;;;;;;;4811159;29;20137;-72
2021/12/23 09:27:02;;;;;;;23.63;14.52;;;;;;;;;;4812060;29;20043;-74
2021/12/23 09:34:53;;;;;;;30.60;19.65;;;;;;;;;;4813641;29;20107;-74
2021/12/23 09:37:40;;;;;;;30.30;19.10;;;;;;;;;;4824485;29;20056;-73
2021/12/23 09:40:08;;;;;;;34.22;18.85;;;;;;;;;;4825522;29;20055;-73
2021/12/23 09:42:35;;;;;;;30.48;19.65;;;;;;;;;;4817695;29;20050;-72
2021/12/23 09:45:09;;;;;;;27.20;17.33;;;;;;;;;;4819568;29;20045;-72
2021/12/23 09:47:37;;;;;;;30.25;17.15;;;;;;;;;;4823195;29;20046;-72
2021/12/23 09:50:07;;;;;;;28.38;18.52;;;;;;;;;;4838106;29;20037;-72
2021/12/23 09:52:35;;;;;;;32.13;18.98;;;;;;;;;;4828791;29;20114;-71
2021/12/23 09:55:04;;;;;;;33.58;18.58;;;;;;;;;;4837762;29;20065;-72
2021/12/23 09:57:31;;;;;;;31.83;18.88;;;;;;;;;;4836087;29;20060;-71
2021/12/23 09:59:59;;;;;;;29.05;18.20;;;;;;;;;;4834321;29;20043;-73
2021/12/23 10:02:27;;;;;;;27.90;18.67;;;;;;;;;;4821336;29;20049;-73
2021/12/23 10:04:54;;;;;;;34.08;19.55;;;;;;;;;;4821223;29;20110;-71
2021/12/23 10:07:22;;;;;;;32.80;19.58;;;;;;;;;;4821319;29;20046;-74
2021/12/23 10:31:27;;;;;;;30.33;19.00;;;;;;;;;;4819577;29;20054;-71
2021/12/23 10:37:14;;;;;;;33.67;20.05;;;;;;;;;;4821276;29;20061;-71
2021/12/23 10:39:43;;;;;;;33.40;17.73;;;;;;;;;;4825063;29;20042;-73
2021/12/23 10:42:14;;;;;;;38.42;24.02;;;;;;;;;;4819316;29;20054;-73
2021/12/23 10:44:48;;;;;;;35.63;21.20;;;;;;;;;;4820220;29;20431;-73
2021/12/23 10:47:30;;;;;;;36.65;20.67;;;;;;;;;;4818399;29;20070;-71
2021/12/23 10:50:13;;;;;;;38.88;22.63;;;;;;;;;;4830906;29;20104;-73
2021/12/23 10:52:50;;;;;;;35.28;20.35;;;;;;;;;;4822658;29;20049;-72
2021/12/23 10:58:07;;;;;;;36.90;21.38;;;;;;;;;;4821270;29;20112;-72
2021/12/23 11:00:36;;;;;;;30.13;17.83;;;;;;;;;;4817285;29;20042;-71
2021/12/23 11:03:12;;;;;;;32.85;20.95;;;;;;;;;;4831170;29;20042;-72
2021/12/23 11:05:49;;;;;;;36.20;22.70;;;;;;;;;;4830545;29;20099;-72
2021/12/23 11:08:25;;;;;;;30.50;19.70;;;;;;;;;;4832719;29;20082;-71
2021/12/23 11:11:17;;;;;;;34.60;21.75;;;;;;;;;;4808422;29;20051;-73
2021/12/23 11:38:20;;;;;;;33.85;20.67;;;;;;;;;;4814123;29;20053;-72
2021/12/23 11:40:52;;;;;;;39.88;24.25;;;;;;;;;;4815078;29;20417;-73
2021/12/23 11:46:00;;;;;;;36.47;21.30;;;;;;;;;;4815333;29;19985;-72
2021/12/23 11:48:28;;;;;;;37.78;21.92;;;;;;;;;;4796995;29;20055;-72
2021/12/23 11:51:07;;;;;;;35.20;20.17;;;;;;;;;;4814248;29;20058;-71
2021/12/23 11:53:36;;;;;;;30.33;19.00;;;;;;;;;;4827636;29;20514;-72
2021/12/23 11:56:05;;;;;;;36.10;21.10;;;;;;;;;;4816204;29;20077;-72
2021/12/23 11:58:33;;;;;;;39.45;22.88;;;;;;;;;;4816189;29;20046;-72
2021/12/23 12:01:11;;;;;;;40.10;23.65;;;;;;;;;;4813147;29;20656;-75
2021/12/23 12:03:40;;;;;;;36.72;21.30;;;;;;;;;;4807681;29;20050;-72
2021/12/23 12:06:15;;;;;;;42.03;24.92;;;;;;;;;;4809494;29;20077;-72
2021/12/23 12:08:42;;;;;;;43.83;23.98;;;;;;;;;;4799114;29;20208;-71
2021/12/23 12:11:23;;;;;;;40.38;22.65;;;;;;;;;;4809297;29;20115;-73
2021/12/23 12:13:51;;;;;;;31.50;20.02;;;;;;;;;;4823371;29;20077;-72
2021/12/23 12:16:27;;;;;;;44.10;24.33;;;;;;;;;;4819051;24;20066;-73
2021/12/23 12:18:55;;;;;;;40.72;23.38;;;;;;;;;;4795320;29;20499;-73
2021/12/23 12:21:24;;;;;;;37.25;21.88;;;;;;;;;;4796368;29;20047;-73
2021/12/23 12:24:06;;;;;;;34.28;21.85;;;;;;;;;;4793741;29;20067;-74
2021/12/23 12:26:37;;;;;;;37.20;21.77;;;;;;;;;;4794533;29;20050;-74
2021/12/23 12:29:05;;;;;;;37.15;22.38;;;;;;;;;;4787242;29;20146;-74
2021/12/23 12:31:41;;;;;;;40.15;23.08;;;;;;;;;;4795676;29;20062;-75
2021/12/23 12:34:12;;;;;;;40.20;22.50;;;;;;;;;;4795410;29;20528;-75
2021/12/23 12:36:40;;;;;;;32.95;21.45;;;;;;;;;;4796614;29;20090;-75
2021/12/23 12:39:10;;;;;;;34.10;20.95;;;;;;;;;;4779174;29;20059;-75
2021/12/23 12:41:39;;;;;;;35.22;23.70;;;;;;;;;;4798729;29;20053;-75
2021/12/23 12:44:25;;;;;;;36.50;23.13;;;;;;;;;;4798971;29;20142;-74
2021/12/23 12:49:30;;;;;;;33.47;20.55;;;;;;;;;;4793389;29;20116;-74
2021/12/23 12:52:19;;;;;;;34.25;22.48;;;;;;;;;;4795618;29;20055;-75
2021/12/23 12:55:00;;;;;;;35.47;21.48;;;;;;;;;;4788441;29;20138;-74
2021/12/23 12:57:31;;;;;;;34.20;21.98;;;;;;;;;;4798911;29;20093;-74
2021/12/23 13:00:20;;;;;;;36.88;22.23;;;;;;;;;;4782471;29;20059;-75
2021/12/23 13:02:49;;;;;;;38.15;22.95;;;;;;;;;;4797046;29;20383;-74
2021/12/23 13:05:16;;;;;;;42.22;23.55;;;;;;;;;;4793468;29;20049;-74
2021/12/23 13:08:21;;;;;;;34.60;20.60;;;;;;;;;;4801190;29;20061;-74
2021/12/23 13:11:22;;;;;;;40.33;22.17;;;;;;;;;;4784137;29;20169;-73
2021/12/23 13:14:23;;;;;;;36.88;21.95;;;;;;;;;;4782681;29;20061;-75
2021/12/23 13:17:23;;;;;;;33.00;21.70;;;;;;;;;;4775082;29;21000;-75
2021/12/23 13:19:50;;;;;;;38.03;22.42;;;;;;;;;;4786660;29;20129;-74
2021/12/23 13:22:34;;;;;;;38.90;23.17;;;;;;;;;;4782786;29;20794;-75
2021/12/23 13:25:04;;;;;;;37.03;22.80;;;;;;;;;;4775803;29;20142;-75
2021/12/23 13:27:31;;;;;;;38.70;22.23;;;;;;;;;;4796275;29;20054;-74
2021/12/23 13:30:06;;;;;;;34.42;21.70;;;;;;;;;;4794134;29;20057;-75
2021/12/23 13:32:34;;;;;;;35.53;21.92;;;;;;;;;;4796678;29;20473;-75
2021/12/23 13:35:08;;;;;;;39.67;21.88;;;;;;;;;;4791206;29;20058;-75
2021/12/23 13:37:35;;;;;;;38.13;23.42;;;;;;;;;;4793591;29;20083;-74
2021/12/23 13:40:03;;;;;;;36.85;22.38;;;;;;;;;;4798154;29;20131;-74
2021/12/23 13:42:30;;;;;;;33.42;22.50;;;;;;;;;;4798556;29;20417;-74
2021/12/23 13:44:58;;;;;;;34.17;22.60;;;;;;;;;;4791791;29;20074;-74
2021/12/23 13:47:26;;;;;;;40.35;24.92;;;;;;;;;;4799934;29;20053;-74
2021/12/23 13:49:54;;;;;;;42.50;24.23;;;;;;;;;;4814375;29;20070;-73
2021/12/23 13:52:31;;;;;;;46.75;26.83;;;;;;;;;;4814162;29;20051;-73
2021/12/23 13:54:59;;;;;;;37.35;23.65;;;;;;;;;;4803159;29;20050;-74
2021/12/23 13:57:27;;;;;;;40.13;23.50;;;;;;;;;;4790897;29;20051;-74
2021/12/23 13:59:54;;;;;;;35.83;22.77;;;;;;;;;;4786735;29;20056;-74
2021/12/23 14:02:25;;;;;;;37.03;23.02;;;;;;;;;;4789063;29;20716;-74
2021/12/23 14:05:03;;;;;;;39.25;22.35;;;;;;;;;;4790503;29;20294;-73
2021/12/23 14:07:32;;;;;;;33.35;21.67;;;;;;;;;;4796975;29;20047;-74
2021/12/23 14:10:00;;;;;;;30.92;19.23;;;;;;;;;;4792927;29;20047;-73
2021/12/23 14:12:46;;;;;;;32.35;21.60;;;;;;;;;;4797436;29;20373;-73
2021/12/23 14:15:27;;;;;;;34.55;21.05;;;;;;;;;;4786426;29;20050;-74
2021/12/23 14:23:52;;;;;;;32.53;21.52;;;;;;;;;;4789607;29;20050;-74
2021/12/23 14:26:23;;;;;;;34.65;21.65;;;;;;;;;;4791055;29;20050;-74
2021/12/23 14:28:54;;;;;;;34.63;22.45;;;;;;;;;;4794398;29;20050;-74
2021/12/23 14:31:32;;;;;;;35.78;21.30;;;;;;;;;;4796004;29;20076;-74
2021/12/23 14:33:59;;;;;;;34.92;23.23;;;;;;;;;;4796784;29;20369;-74
2021/12/23 14:36:50;;;;;;;32.72;22.02;;;;;;;;;;4795715;29;20085;-73
2021/12/23 14:39:26;;;;;;;36.67;22.52;;;;;;;;;;4803314;29;20456;-74
2021/12/23 14:41:55;;;;;;;35.45;22.08;;;;;;;;;;4799245;29;20047;-74
2021/12/23 14:44:26;;;;;;;44.42;26.38;;;;;;;;;;4795223;29;20051;-75
2021/12/23 14:47:04;;;;;;;37.90;23.08;;;;;;;;;;4797023;29;20100;-74
2021/12/23 14:52:17;;;;;;;37.25;23.30;;;;;;;;;;4794525;29;20086;-75
2021/12/23 14:54:50;;;;;;;34.35;21.67;;;;;;;;;;4795881;29;20512;-75
2021/12/23 14:57:26;;;;;;;35.53;23.33;;;;;;;;;;4800926;29;20516;-73
2021/12/23 15:00:13;;;;;;;38.03;24.52;;;;;;;;;;4797295;29;20079;-74
2021/12/23 15:02:49;;;;;;;39.33;23.88;;;;;;;;;;4779906;29;20082;-75
2021/12/23 15:05:18;;;;;;;35.17;22.27;;;;;;;;;;4773999;29;20059;-73
2021/12/23 15:07:51;;;;;;;34.72;22.65;;;;;;;;;;4794329;29;20089;-74
2021/12/23 15:10:32;;;;;;;34.50;22.83;;;;;;;;;;4802467;29;20043;-73
2021/12/23 15:13:00;;;;;;;34.37;23.23;;;;;;;;;;4799893;29;20186;-73
2021/12/23 15:15:32;;;;;;;37.88;24.50;;;;;;;;;;4799443;29;20827;-74
2021/12/23 15:18:13;;;;;;;40.50;24.15;;;;;;;;;;4799690;29;20054;-74
2021/12/23 15:20:47;;;;;;;37.88;23.58;;;;;;;;;;4798559;29;20612;-74
2021/12/23 15:23:14;;;;;;;33.90;22.50;;;;;;;;;;4802357;29;20079;-73
2021/12/23 15:25:42;;;;;;;37.22;23.88;;;;;;;;;;4793023;29;20553;-74
2021/12/23 15:28:14;;;;;;;41.03;25.60;;;;;;;;;;4791238;29;20143;-73
2021/12/23 15:30:41;;;;;;;40.58;25.20;;;;;;;;;;4794154;29;20105;-74
2021/12/23 15:33:09;;;;;;;37.97;24.25;;;;;;;;;;4796385;29;20051;-73
2021/12/23 15:35:37;;;;;;;34.92;21.95;;;;;;;;;;4795826;29;20141;-74
2021/12/23 15:38:05;;;;;;;37.63;23.50;;;;;;;;;;4789495;29;20717;-73
2021/12/23 15:40:35;;;;;;;50.55;24.42;;;;;;;;;;4793221;29;20099;-74
2021/12/23 15:43:06;;;;;;;42.10;26.30;;;;;;;;;;4793520;29;20136;-75
2021/12/23 15:45:37;;;;;;;42.20;25.50;;;;;;;;;;4792852;29;20454;-74
2021/12/23 15:48:08;;;;;;;38.45;24.33;;;;;;;;;;4804432;29;20045;-74
2021/12/23 15:50:36;;;;;;;38.95;24.13;;;;;;;;;;4797868;29;20500;-74
2021/12/23 15:53:08;;;;;;;38.28;23.42;;;;;;;;;;4798223;29;20043;-74
2021/12/23 15:55:36;;;;;;;42.60;24.83;;;;;;;;;;4786005;29;20159;-74
2021/12/23 15:58:06;;;;;;;41.20;25.13;;;;;;;;;;4794110;29;20171;-74
2021/12/23 16:00:35;;;;;;;47.15;26.95;;;;;;;;;;4784002;29;20082;-74